Time,TemperatureF,DewpointF,PressureIn,WindDirection,WindDirectionDegrees,WindSpeedMPH,WindSpeedGustMPH,Humidity,HourlyPrecipIn,Conditions,Clouds,dailyrainin,SolarRadiationWatts/m^2,SoftwareType,DateUTC
2013-07-14 00:01:00,59.0,53.0,-100.00,NNE,26,5.0,10.0,80,0.00,,,0.00,0.000000,,2013-07-14 06:01:00,
2013-07-14 00:11:00,59.0,53.0,-100.00,NNE,26,5.0,10.0,80,0.00,,,0.00,0.000000,,2013-07-14 06:11:00,
2013-07-14 00:22:00,59.0,53.0,-100.00,NNE,26,5.0,10.0,80,0.00,,,0.00,0.000000,,2013-07-14 06:22:00,
2013-07-14 00:53:00,60.0,54.0,-100.00,North,9,5.0,12.0,81,0.00,,,0.00,0.000000,,2013-07-14 06:53:00,
2013-07-14 01:02:00,60.0,54.0,-100.00,North,9,5.0,12.0,81,0.00,,,0.00,0.000000,,2013-07-14 07:02:00,
2013-07-14 01:12:00,60.0,54.0,-100.00,North,9,5.0,12.0,81,0.00,,,0.00,0.000000,,2013-07-14 07:12:00,
2013-07-14 01:22:00,60.0,54.0,-100.00,North,9,5.0,12.0,81,0.00,,,0.00,0.000000,,2013-07-14 07:22:00,
2013-07-14 01:53:00,57.0,52.0,-100.00,North,1,8.0,16.0,83,0.00,,,0.00,0.000000,,2013-07-14 07:53:00,
2013-07-14 02:01:00,57.0,52.0,-100.00,North,1,8.0,16.0,83,0.00,,,0.00,0.000000,,2013-07-14 08:01:00,
2013-07-14 02:11:00,57.0,52.0,-100.00,North,1,8.0,16.0,83,0.00,,,0.00,0.000000,,2013-07-14 08:11:00,
2013-07-14 02:22:00,57.0,52.0,-100.00,North,1,8.0,16.0,83,0.00,,,0.00,0.000000,,2013-07-14 08:22:00,
2013-07-14 02:53:00,56.0,52.0,-100.00,NNE,25,4.0,13.0,85,0.00,,,0.00,0.000000,,2013-07-14 08:53:00,
2013-07-14 03:01:00,56.0,52.0,-100.00,NNE,25,4.0,13.0,85,0.00,,,0.00,0.000000,,2013-07-14 09:01:00,
2013-07-14 03:11:00,56.0,52.0,-100.00,NNE,25,4.0,13.0,85,0.00,,,0.00,0.000000,,2013-07-14 09:11:00,
2013-07-14 03:22:00,56.0,52.0,-100.00,NNE,25,4.0,13.0,85,0.00,,,0.00,0.000000,,2013-07-14 09:22:00,
2013-07-14 03:53:00,56.0,53.0,-100.00,North,353,3.0,12.0,90,0.00,,,0.00,0.000000,,2013-07-14 09:53:00,
2013-07-14 04:01:00,56.0,53.0,-100.00,North,353,3.0,12.0,90,0.00,,,0.00,0.000000,,2013-07-14 10:01:00,
2013-07-14 04:11:00,56.0,53.0,-100.00,North,353,3.0,12.0,90,0.00,,,0.00,0.000000,,2013-07-14 10:11:00,
2013-07-14 04:22:00,56.0,53.0,-100.00,North,353,3.0,12.0,90,0.00,,,0.00,0.000000,,2013-07-14 10:22:00,
2013-07-14 04:53:00,53.0,51.0,-100.00,NE,45,4.0,11.0,93,0.00,,,0.00,0.000000,,2013-07-14 10:53:00,
2013-07-14 05:02:00,53.0,51.0,-100.00,NE,45,4.0,11.0,93,0.00,,,0.00,0.000000,,2013-07-14 11:02:00,
2013-07-14 05:11:00,53.0,51.0,-100.00,NE,45,4.0,11.0,93,0.00,,,0.00,0.000000,,2013-07-14 11:11:00,
2013-07-14 05:22:00,53.0,51.0,-100.00,NE,45,4.0,11.0,93,0.00,,,0.00,0.000000,,2013-07-14 11:22:00,
2013-07-14 05:53:00,54.0,53.0,-100.00,WNW,303,2.0,7.0,96,0.00,,,0.00,0.000000,,2013-07-14 11:53:00,
2013-07-14 06:02:00,54.0,53.0,-100.00,WNW,303,2.0,7.0,96,0.00,,,0.00,0.000000,,2013-07-14 12:02:00,
2013-07-14 06:11:00,54.0,53.0,-100.00,WNW,303,2.0,7.0,96,0.00,,,0.00,0.000000,,2013-07-14 12:11:00,
2013-07-14 06:22:00,54.0,53.0,-100.00,WNW,303,2.0,7.0,96,0.00,,,0.00,0.000000,,2013-07-14 12:22:00,
2013-07-14 06:53:00,54.0,52.0,-100.00,NNE,26,4.0,9.0,93,0.00,,,0.00,31.000000,,2013-07-14 12:53:00,
2013-07-14 07:01:00,54.0,52.0,-100.00,NNE,26,4.0,9.0,93,0.00,,,0.00,31.000000,,2013-07-14 13:01:00,
2013-07-14 07:11:00,54.0,52.0,-100.00,NNE,26,4.0,9.0,93,0.00,,,0.00,31.000000,,2013-07-14 13:11:00,
2013-07-14 07:22:00,54.0,52.0,-100.00,NNE,26,4.0,9.0,93,0.00,,,0.00,31.000000,,2013-07-14 13:22:00,
2013-07-14 07:53:00,59.0,53.0,-100.00,NE,41,7.0,12.0,81,0.00,,,0.00,149.000000,,2013-07-14 13:53:00,
2013-07-14 08:02:00,59.0,53.0,-100.00,NE,41,7.0,12.0,81,0.00,,,0.00,149.000000,,2013-07-14 14:02:00,
2013-07-14 08:11:00,59.0,53.0,-100.00,NE,41,7.0,12.0,81,0.00,,,0.00,149.000000,,2013-07-14 14:11:00,
2013-07-14 08:23:00,59.0,53.0,-100.00,NE,41,7.0,12.0,81,0.00,,,0.00,149.000000,,2013-07-14 14:23:00,
2013-07-14 08:43:00,64.0,54.0,-100.00,NNE,33,8.0,13.0,70,0.00,,,0.00,449.000000,,2013-07-14 14:43:00,
2013-07-14 08:53:00,64.0,54.0,-100.00,NNE,33,8.0,13.0,70,0.00,,,0.00,449.000000,,2013-07-14 14:53:00,
2013-07-14 09:01:00,64.0,54.0,-100.00,NNE,33,8.0,13.0,70,0.00,,,0.00,449.000000,,2013-07-14 15:01:00,
2013-07-14 09:12:00,64.0,54.0,-100.00,NNE,33,8.0,13.0,70,0.00,,,0.00,449.000000,,2013-07-14 15:12:00,
2013-07-14 09:22:00,64.0,54.0,-100.00,NNE,33,8.0,13.0,70,0.00,,,0.00,449.000000,,2013-07-14 15:22:00,
2013-07-14 09:53:00,60.0,52.0,-100.00,NE,44,9.0,15.0,76,0.00,,,0.00,272.000000,,2013-07-14 15:53:00,
2013-07-14 10:01:00,60.0,52.0,-100.00,NE,44,9.0,15.0,76,0.00,,,0.00,272.000000,,2013-07-14 16:01:00,
2013-07-14 10:11:00,60.0,52.0,-100.00,NE,44,9.0,15.0,76,0.00,,,0.00,272.000000,,2013-07-14 16:11:00,
2013-07-14 10:22:00,60.0,52.0,-100.00,NE,44,9.0,15.0,76,0.00,,,0.00,272.000000,,2013-07-14 16:22:00,
2013-07-14 10:53:00,65.0,55.0,-100.00,NNE,24,4.0,11.0,70,0.00,,,0.00,320.000000,,2013-07-14 16:53:00,
2013-07-14 11:02:00,65.0,55.0,-100.00,NNE,24,4.0,11.0,70,0.00,,,0.00,320.000000,,2013-07-14 17:02:00,
2013-07-14 11:11:00,65.0,55.0,-100.00,NNE,24,4.0,11.0,70,0.00,,,0.00,320.000000,,2013-07-14 17:11:00,
2013-07-14 11:22:00,65.0,55.0,-100.00,NNE,24,4.0,11.0,70,0.00,,,0.00,320.000000,,2013-07-14 17:22:00,
2013-07-14 11:53:00,62.0,51.0,-100.00,East,83,11.0,18.0,66,0.00,,,0.00,468.000000,,2013-07-14 17:53:00,
2013-07-14 12:01:00,62.0,51.0,-100.00,East,83,11.0,18.0,66,0.00,,,0.00,468.000000,,2013-07-14 18:01:00,
2013-07-14 12:11:00,62.0,51.0,-100.00,East,83,11.0,18.0,66,0.00,,,0.00,468.000000,,2013-07-14 18:11:00,
2013-07-14 12:22:00,62.0,51.0,-100.00,East,83,11.0,18.0,66,0.00,,,0.00,468.000000,,2013-07-14 18:22:00,
2013-07-14 12:52:00,67.0,53.0,-100.00,ENE,68,7.0,16.0,61,0.00,,,0.00,381.000000,,2013-07-14 18:52:00,
2013-07-14 13:01:00,67.0,53.0,-100.00,ENE,68,7.0,16.0,61,0.00,,,0.00,381.000000,,2013-07-14 19:01:00,
2013-07-14 13:11:00,67.0,53.0,-100.00,ENE,68,7.0,16.0,61,0.00,,,0.00,381.000000,,2013-07-14 19:11:00,
2013-07-14 13:22:00,67.0,53.0,-100.00,ENE,68,7.0,16.0,61,0.00,,,0.00,381.000000,,2013-07-14 19:22:00,
2013-07-14 13:53:00,69.0,55.0,-100.00,SE,133,7.0,15.0,60,0.00,,,0.00,886.000000,,2013-07-14 19:53:00,
2013-07-14 14:01:00,69.0,55.0,-100.00,SE,133,7.0,15.0,60,0.00,,,0.00,886.000000,,2013-07-14 20:01:00,
2013-07-14 14:11:00,69.0,55.0,-100.00,SE,133,7.0,15.0,60,0.00,,,0.00,886.000000,,2013-07-14 20:11:00,
2013-07-14 14:22:00,69.0,55.0,-100.00,SE,133,7.0,15.0,60,0.00,,,0.00,886.000000,,2013-07-14 20:22:00,
2013-07-14 14:53:00,70.0,55.0,-100.00,East,89,7.0,14.0,58,0.00,,,0.00,994.000000,,2013-07-14 20:53:00,
2013-07-14 15:01:00,70.0,55.0,-100.00,East,89,7.0,14.0,58,0.00,,,0.00,994.000000,,2013-07-14 21:01:00,
2013-07-14 15:11:00,70.0,55.0,-100.00,East,89,7.0,14.0,58,0.00,,,0.00,994.000000,,2013-07-14 21:11:00,
2013-07-14 15:22:00,70.0,55.0,-100.00,East,89,7.0,14.0,58,0.00,,,0.00,994.000000,,2013-07-14 21:22:00,
2013-07-14 15:52:00,70.0,54.0,-100.00,ESE,117,8.0,15.0,57,0.00,,,0.00,888.000000,,2013-07-14 21:52:00,
2013-07-14 16:01:00,70.0,54.0,-100.00,ESE,117,8.0,15.0,57,0.00,,,0.00,888.000000,,2013-07-14 22:01:00,
2013-07-14 16:11:00,70.0,54.0,-100.00,ESE,117,8.0,15.0,57,0.00,,,0.00,888.000000,,2013-07-14 22:11:00,
2013-07-14 16:22:00,70.0,54.0,-100.00,ESE,117,8.0,15.0,57,0.00,,,0.00,888.000000,,2013-07-14 22:22:00,
2013-07-14 16:53:00,71.0,54.0,-100.00,East,90,8.0,15.0,56,0.00,,,0.00,779.000000,,2013-07-14 22:53:00,
2013-07-14 17:01:00,71.0,54.0,-100.00,East,90,8.0,15.0,56,0.00,,,0.00,779.000000,,2013-07-14 23:01:00,
2013-07-14 17:11:00,71.0,54.0,-100.00,East,90,8.0,15.0,56,0.00,,,0.00,779.000000,,2013-07-14 23:11:00,
2013-07-14 17:22:00,71.0,54.0,-100.00,East,90,8.0,15.0,56,0.00,,,0.00,779.000000,,2013-07-14 23:22:00,
2013-07-14 17:53:00,72.0,51.0,-100.00,SE,127,8.0,15.0,47,0.00,,,0.00,659.000000,,2013-07-14 23:53:00,
2013-07-14 18:02:00,72.0,51.0,-100.00,SE,127,8.0,15.0,47,0.00,,,0.00,659.000000,,2013-07-15 00:02:00,
2013-07-14 18:11:00,72.0,51.0,-100.00,SE,127,8.0,15.0,47,0.00,,,0.00,659.000000,,2013-07-15 00:11:00,
2013-07-14 18:22:00,72.0,51.0,-100.00,SE,127,8.0,15.0,47,0.00,,,0.00,659.000000,,2013-07-15 00:22:00,
2013-07-14 18:53:00,72.0,54.0,-100.00,ESE,104,8.0,15.0,54,0.00,,,0.00,507.000000,,2013-07-15 00:53:00,
2013-07-14 19:01:00,72.0,54.0,-100.00,ESE,104,8.0,15.0,54,0.00,,,0.00,507.000000,,2013-07-15 01:01:00,
2013-07-14 19:11:00,72.0,54.0,-100.00,ESE,104,8.0,15.0,54,0.00,,,0.00,507.000000,,2013-07-15 01:11:00,
2013-07-14 19:22:00,72.0,54.0,-100.00,ESE,104,8.0,15.0,54,0.00,,,0.00,507.000000,,2013-07-15 01:22:00,
2013-07-14 19:53:00,67.0,55.0,-100.00,ESE,117,9.0,17.0,66,0.00,,,0.00,104.000000,,2013-07-15 01:53:00,
2013-07-14 20:02:00,67.0,55.0,-100.00,ESE,117,9.0,17.0,66,0.00,,,0.00,104.000000,,2013-07-15 02:02:00,
2013-07-14 20:11:00,67.0,55.0,-100.00,ESE,117,9.0,17.0,66,0.00,,,0.00,104.000000,,2013-07-15 02:11:00,
2013-07-14 20:22:00,67.0,55.0,-100.00,ESE,117,9.0,17.0,66,0.00,,,0.00,104.000000,,2013-07-15 02:22:00,
2013-07-14 20:53:00,65.0,57.0,-100.00,ESE,113,6.0,16.0,75,0.00,,,0.00,36.000000,,2013-07-15 02:53:00,
2013-07-14 21:02:00,65.0,57.0,-100.00,ESE,113,6.0,16.0,75,0.00,,,0.00,36.000000,,2013-07-15 03:02:00,
2013-07-14 21:11:00,65.0,57.0,-100.00,ESE,113,6.0,16.0,75,0.00,,,0.00,36.000000,,2013-07-15 03:11:00,
2013-07-14 21:22:00,65.0,57.0,-100.00,ESE,113,6.0,16.0,75,0.00,,,0.00,36.000000,,2013-07-15 03:22:00,
2013-07-14 21:53:00,61.0,56.0,-100.00,SE,124,6.0,12.0,83,0.00,,,0.00,6.000000,,2013-07-15 03:53:00,
2013-07-14 22:01:00,61.0,56.0,-100.00,SE,124,6.0,12.0,83,0.00,,,0.00,6.000000,,2013-07-15 04:01:00,
2013-07-14 22:11:00,61.0,56.0,-100.00,SE,124,6.0,12.0,83,0.00,,,0.00,6.000000,,2013-07-15 04:11:00,
2013-07-14 22:22:00,61.0,56.0,-100.00,SE,124,6.0,12.0,83,0.00,,,0.00,6.000000,,2013-07-15 04:22:00,
2013-07-14 22:54:00,60.0,56.0,-100.00,SE,146,6.0,14.0,88,0.00,,,0.00,0.000000,,2013-07-15 04:54:00,
2013-07-14 23:02:00,60.0,56.0,-100.00,SE,146,6.0,14.0,88,0.00,,,0.00,0.000000,,2013-07-15 05:02:00,
2013-07-14 23:11:00,60.0,56.0,-100.00,SE,146,6.0,14.0,88,0.00,,,0.00,0.000000,,2013-07-15 05:11:00,
2013-07-14 23:21:00,60.0,56.0,-100.00,SE,146,6.0,14.0,88,0.00,,,0.00,0.000000,,2013-07-15 05:21:00,
2013-07-14 23:43:00,60.0,57.0,-100.00,SE,142,6.0,13.0,90,0.00,,,0.00,0.000000,,2013-07-15 05:43:00,
2013-07-14 23:53:00,60.0,57.0,-100.00,SE,142,6.0,13.0,90,0.00,,,0.00,0.000000,,2013-07-15 05:53:00,